Time;durP1;ratioP1;P1;durP2;ratioP2;P2;SDS_P1;SDS_P2;PMS_P1;PMS_P2;Temp;Humidity;BMP_temperature;BMP_pressure;BME280_temperature;BME280_humidity;BME280_pressure;Samples;Min_cycle;Max_cycle;Signal;HPM_P1;HPM_P2
2023/04/17 09:13:24;;;;;;;62.90;32.00;;;10.30;99.90;;;;;;4051802;29;20450;-92
2023/04/17 09:15:26;;;;;;;62.03;32.53;;;10.30;99.90;;;;;;4068615;29;20636;-92
2023/04/17 09:17:33;;;;;;;67.70;31.03;;;10.30;99.90;;;;;;4037232;29;20186;-94
2023/04/17 09:19:34;;;;;;;61.20;30.70;;;10.20;99.90;;;;;;4068396;29;20207;-92
2023/04/17 09:21:35;;;;;;;56.87;29.70;;;10.20;99.90;;;;;;4052707;29;20169;-91
2023/04/17 09:23:48;;;;;;;53.30;29.50;;;10.30;99.90;;;;;;4037296;29;20224;-91
2023/04/17 09:26:06;;;;;;;55.27;28.03;;;10.40;99.90;;;;;;4037262;29;20286;-95
2023/04/17 09:28:12;;;;;;;51.13;28.57;;;10.60;99.90;;;;;;4037870;29;20547;-92
2023/04/17 09:30:13;;;;;;;49.60;28.57;;;10.70;99.90;;;;;;4037292;29;20473;-93
2023/04/17 09:32:15;;;;;;;46.40;26.83;;;10.80;99.90;;;;;;4036427;29;20186;-94
2023/04/17 09:34:16;;;;;;;50.20;28.20;;;10.70;99.90;;;;;;4052434;29;20690;-93
2023/04/17 09:36:20;;;;;;;49.33;28.20;;;10.60;99.90;;;;;;4053049;29;20173;-94
2023/04/17 09:38:37;;;;;;;49.03;28.53;;;10.60;99.90;;;;;;4068287;29;20236;-93
2023/04/17 09:40:41;;;;;;;52.07;28.40;;;10.70;99.90;;;;;;4052340;29;20177;-94
2023/04/17 09:43:01;;;;;;;46.77;28.60;;;10.80;99.90;;;;;;4051358;29;20185;-93
2023/04/17 09:45:18;;;;;;;50.20;28.13;;;11.00;99.90;;;;;;4052357;29;20343;-93
2023/04/17 09:47:20;;;;;;;49.70;28.43;;;11.10;99.90;;;;;;4052098;29;20201;-93
2023/04/17 09:49:36;;;;;;;46.93;28.27;;;11.30;99.90;;;;;;4035989;29;20261;-94
2023/04/17 09:51:37;;;;;;;49.10;27.15;;;11.60;99.90;;;;;;4056352;29;20217;-94
2023/04/17 09:53:38;;;;;;;52.17;27.92;;;11.70;99.90;;;;;;4053919;29;20183;-93
2023/04/17 09:55:40;;;;;;;46.78;27.38;;;11.70;99.90;;;;;;4071460;29;20188;-93
2023/04/17 09:57:41;;;;;;;45.55;28.73;;;11.80;99.90;;;;;;4066062;29;20185;-94
2023/04/17 09:59:44;;;;;;;45.60;27.30;;;11.70;99.90;;;;;;4052470;29;20176;-93
2023/04/17 10:01:45;;;;;;;45.20;27.85;;;11.70;99.90;;;;;;4052033;29;20849;-94
2023/04/17 10:03:46;;;;;;;47.25;28.05;;;11.80;99.90;;;;;;4051625;29;20192;-94
2023/04/17 10:05:47;;;;;;;45.70;28.10;;;11.80;99.90;;;;;;4036287;29;20174;-93
2023/04/17 10:07:48;;;;;;;44.33;28.05;;;11.90;99.90;;;;;;4036836;29;20177;-94
2023/04/17 10:09:49;;;;;;;45.50;28.67;;;11.60;99.90;;;;;;4033381;29;20205;-94
2023/04/17 10:11:51;;;;;;;50.60;27.90;;;11.40;99.90;;;;;;4049900;29;20422;-94
2023/04/17 10:14:07;;;;;;;47.42;28.17;;;11.40;99.90;;;;;;4036361;29;20189;-93
2023/04/17 10:16:07;;;;;;;49.92;29.42;;;11.50;99.90;;;;;;4052228;29;20226;-93
2023/04/17 10:18:22;;;;;;;49.00;28.77;;;11.60;99.90;;;;;;4037047;29;20245;-95
2023/04/17 10:20:22;;;;;;;47.20;28.30;;;11.60;99.90;;;;;;4036587;29;20185;-93
2023/04/17 10:22:23;;;;;;;48.33;28.52;;;11.50;99.90;;;;;;4036119;29;20196;-93
2023/04/17 10:24:25;;;;;;;45.38;27.77;;;11.50;99.90;;;;;;4036212;29;20405;-93
2023/04/17 10:26:28;;;;;;;43.95;26.10;;;11.60;99.90;;;;;;4052009;29;20212;-92
2023/04/17 10:28:49;;;;;;;41.78;27.13;;;11.70;99.90;;;;;;4036551;29;20181;-92
2023/04/17 10:30:52;;;;;;;44.17;27.67;;;11.80;99.90;;;;;;4051695;29;20215;-94
2023/04/17 10:33:11;;;;;;;49.83;29.60;;;12.00;99.90;;;;;;4051309;29;20208;-95
2023/04/17 10:35:15;;;;;;;49.15;28.80;;;11.90;99.90;;;;;;4036140;29;20211;-94
2023/04/17 10:37:16;;;;;;;55.45;30.75;;;12.10;99.90;;;;;;4051830;29;20193;-94
2023/04/17 10:39:17;;;;;;;53.97;30.70;;;12.00;99.90;;;;;;4036116;29;20170;-94
2023/04/17 10:41:18;;;;;;;49.75;31.17;;;12.00;99.90;;;;;;4050802;29;20276;-94
2023/04/17 10:43:21;;;;;;;50.75;29.10;;;11.90;99.90;;;;;;4034785;29;20609;-94
2023/04/17 10:45:22;;;;;;;51.38;30.65;;;11.80;99.90;;;;;;4035734;29;20185;-93
2023/04/17 10:47:33;;;;;;;50.38;30.33;;;11.70;99.90;;;;;;4051450;29;20223;-94
2023/04/17 10:49:52;;;;;;;58.83;31.25;;;11.60;99.90;;;;;;4035271;29;20201;-94
2023/04/17 10:51:53;;;;;;;52.92;31.38;;;11.50;99.90;;;;;;4035872;29;20181;-95
2023/04/17 10:54:05;;;;;;;49.63;31.33;;;11.50;99.90;;;;;;4051881;29;20200;-94
2023/04/17 10:56:07;;;;;;;49.27;30.23;;;11.30;99.90;;;;;;4051570;29;20177;-94
2023/04/17 10:58:12;;;;;;;49.00;30.20;;;11.10;99.90;;;;;;4051401;29;20240;-94
2023/04/17 11:00:13;;;;;;;53.03;30.85;;;11.10;99.90;;;;;;4051474;29;20169;-93
2023/04/17 11:02:14;;;;;;;51.50;29.13;;;11.30;99.90;;;;;;4034893;29;20738;-95
2023/04/17 11:04:22;;;;;;;47.85;28.02;;;11.50;99.90;;;;;;4050822;29;20204;-94
2023/04/17 11:06:27;;;;;;;47.40;27.88;;;11.90;99.90;;;;;;4051186;29;20605;-93
2023/04/17 11:08:28;;;;;;;45.90;26.48;;;12.00;99.90;;;;;;4035701;29;20681;-94
2023/04/17 11:10:29;;;;;;;38.78;24.30;;;12.00;99.90;;;;;;4060080;29;20204;-95
2023/04/17 11:13:06;;;;;;;43.70;25.98;;;12.00;99.90;;;;;;4085618;29;20192;-96
2023/04/17 11:15:11;;;;;;;37.38;23.52;;;12.20;99.90;;;;;;4068118;29;20705;-96
2023/04/17 11:17:12;;;;;;;36.40;23.05;;;12.30;99.90;;;;;;4085056;29;20780;-96
2023/04/17 11:19:35;;;;;;;39.50;23.88;;;12.20;99.90;;;;;;4066571;29;20161;-95
2023/04/17 11:21:47;;;;;;;36.67;22.60;;;12.20;99.90;;;;;;4080159;29;20260;-94
2023/04/17 11:23:51;;;;;;;39.60;25.20;;;12.30;99.90;;;;;;4067103;29;20203;-94
2023/04/17 11:25:57;;;;;;;39.35;26.08;;;12.40;99.90;;;;;;4055280;29;20201;-94
2023/04/17 11:28:20;;;;;;;45.65;26.98;;;12.40;99.90;;;;;;4053625;29;20197;-93
2023/04/17 11:30:26;;;;;;;40.22;26.23;;;12.10;99.90;;;;;;4071294;29;20188;-95
2023/04/17 11:32:35;;;;;;;40.60;25.48;;;11.90;99.90;;;;;;4065950;29;20195;-95
2023/04/17 11:34:43;;;;;;;37.53;25.67;;;11.80;99.90;;;;;;4066835;29;20185;-90
2023/04/17 11:36:56;;;;;;;41.22;24.58;;;11.80;99.90;;;;;;4051672;29;20182;-95
2023/04/17 11:38:57;;;;;;;40.25;25.83;;;11.90;99.90;;;;;;4051428;29;20251;-96
2023/04/17 11:41:30;;;;;;;40.63;25.15;;;11.90;99.90;;;;;;4054013;29;20169;-92
2023/04/17 11:43:43;;;;;;;40.03;24.83;;;12.00;99.90;;;;;;4053392;29;20185;-96
2023/04/17 11:45:46;;;;;;;42.53;25.17;;;12.10;99.90;;;;;;4036159;29;20222;-95
2023/04/17 11:47:52;;;;;;;42.45;25.83;;;12.20;99.90;;;;;;4050042;29;20263;-94
2023/04/17 11:50:06;;;;;;;39.03;24.77;;;12.30;99.90;;;;;;4063951;29;20188;-95
2023/04/17 11:52:21;;;;;;;41.28;22.95;;;12.40;99.90;;;;;;4054590;29;20181;-95
2023/04/17 11:54:36;;;;;;;38.05;24.90;;;12.60;99.90;;;;;;4070010;29;20256;-94
2023/04/17 11:56:37;;;;;;;40.47;25.08;;;12.80;99.90;;;;;;4035820;29;20202;-95
2023/04/17 11:59:07;;;;;;;41.38;24.42;;;12.80;99.90;;;;;;4050326;29;20184;-93
2023/04/17 12:01:12;;;;;;;37.80;23.27;;;12.80;99.90;;;;;;4051598;29;20261;-94
2023/04/17 12:03:34;;;;;;;48.40;26.10;;;12.70;99.90;;;;;;4053746;29;20212;-93
2023/04/17 12:06:18;;;;;;;39.15;24.63;;;12.60;99.90;;;;;;4049589;29;20169;-94
2023/04/17 12:08:23;;;;;;;41.67;25.55;;;12.60;99.90;;;;;;4066061;29;20184;-96
2023/04/17 12:10:40;;;;;;;44.63;26.13;;;12.70;99.90;;;;;;4102508;29;20164;-93
2023/04/17 12:12:52;;;;;;;42.60;26.27;;;12.70;99.90;;;;;;4089018;29;20192;-92
2023/04/17 12:14:53;;;;;;;41.70;26.30;;;12.80;99.90;;;;;;4089564;29;20284;-94
2023/04/17 12:16:54;;;;;;;39.13;25.30;;;12.80;99.90;;;;;;4086028;29;20583;-95
2023/04/17 12:18:56;;;;;;;40.25;24.45;;;13.00;99.90;;;;;;4071827;29;20664;-95
2023/04/17 12:20:57;;;;;;;37.92;23.55;;;13.10;99.90;;;;;;4071852;29;20255;-95
2023/04/17 12:23:00;;;;;;;37.45;24.23;;;13.20;99.90;;;;;;4069853;29;20217;-92
2023/04/17 12:25:04;;;;;;;37.55;24.88;;;13.40;99.90;;;;;;4057808;29;20169;-95
2023/04/17 12:27:31;;;;;;;40.60;25.23;;;13.20;99.90;;;;;;4070375;29;20252;-96
2023/04/17 12:29:36;;;;;;;37.50;23.80;;;13.20;99.90;;;;;;4081183;29;20204;-93
2023/04/17 12:31:38;;;;;;;31.80;19.33;;;13.10;99.90;;;;;;4088169;29;20247;-94
2023/04/17 12:33:40;;;;;;;43.17;25.75;;;12.90;99.90;;;;;;4103241;29;20178;-93
2023/04/17 12:36:07;;;;;;;40.00;25.70;;;13.00;99.90;;;;;;4071419;29;20188;-92
2023/04/17 12:38:09;;;;;;;35.92;23.25;;;12.90;99.90;;;;;;4087191;29;20171;-95
2023/04/17 12:40:11;;;;;;;34.95;23.50;;;12.80;99.90;;;;;;4085384;29;20160;-93
2023/04/17 12:42:12;;;;;;;41.20;25.80;;;12.70;99.90;;;;;;4086734;29;20168;-93
2023/04/17 12:44:16;;;;;;;39.75;24.90;;;12.80;99.90;;;;;;4054009;29;20758;-93
2023/04/17 12:46:17;;;;;;;34.47;23.95;;;13.00;99.90;;;;;;4084193;29;20219;-94
2023/04/17 12:48:18;;;;;;;34.42;22.67;;;13.20;99.90;;;;;;4055087;29;20158;-93
2023/04/17 12:50:24;;;;;;;36.78;23.50;;;13.30;99.90;;;;;;4067336;29;20184;-93
2023/04/17 12:52:26;;;;;;;33.33;21.58;;;13.30;99.90;;;;;;4070216;29;20221;-94
2023/04/17 12:54:27;;;;;;;34.75;22.52;;;13.20;99.90;;;;;;4070504;29;20193;-94
2023/04/17 12:56:31;;;;;;;34.88;23.08;;;13.10;99.90;;;;;;4070774;29;20248;-93
2023/04/17 12:58:32;;;;;;;33.55;24.08;;;13.00;99.90;;;;;;4068369;29;20176;-92
2023/04/17 13:01:02;;;;;;;35.13;23.98;;;12.90;99.90;;;;;;4084369;28;20230;-93
2023/04/17 13:03:04;;;;;;;36.35;20.70;;;12.80;99.90;;;;;;4071273;29;20193;-91
2023/04/17 13:05:12;;;;;;;38.65;23.98;;;12.80;99.90;;;;;;4066772;29;20194;-95
2023/04/17 13:07:14;;;;;;;37.42;23.73;;;12.80;99.90;;;;;;4096453;29;20235;-91
2023/04/17 13:09:16;;;;;;;37.17;23.17;;;12.80;99.90;;;;;;4047544;29;20210;-91
2023/04/17 13:11:36;;;;;;;35.50;24.40;;;12.80;99.90;;;;;;4078614;29;20197;-91
2023/04/17 13:13:37;;;;;;;35.30;22.55;;;12.90;99.90;;;;;;4047090;29;20201;-92
2023/04/17 13:15:39;;;;;;;34.70;22.55;;;13.00;99.90;;;;;;4051363;29;20181;-93
2023/04/17 13:17:44;;;;;;;37.08;22.50;;;13.20;99.90;;;;;;4069136;29;20172;-93
2023/04/17 13:19:44;;;;;;;35.30;23.30;;;13.30;99.90;;;;;;4044713;29;20184;-92
2023/04/17 13:21:45;;;;;;;36.97;22.70;;;13.60;99.90;;;;;;4038929;29;20213;-91
2023/04/17 13:23:46;;;;;;;34.05;21.33;;;13.70;99.90;;;;;;4041505;29;20202;-92
2023/04/17 13:25:47;;;;;;;33.13;22.10;;;13.70;99.90;;;;;;4056680;29;20181;-89
2023/04/17 13:27:47;;;;;;;32.05;22.13;;;13.80;99.90;;;;;;4039743;29;20178;-93
2023/04/17 13:29:48;;;;;;;30.38;20.83;;;14.00;99.90;;;;;;4042402;29;20188;-94
2023/04/17 13:31:52;;;;;;;34.38;19.98;;;14.10;99.90;;;;;;4040562;29;20177;-95
2023/04/17 13:33:52;;;;;;;34.65;22.35;;;14.30;99.90;;;;;;4041014;29;20206;-90
2023/04/17 13:35:53;;;;;;;29.88;21.45;;;14.30;99.90;;;;;;4039321;29;20180;-90
2023/04/17 13:37:56;;;;;;;34.83;21.02;;;14.10;99.90;;;;;;4041265;29;20174;-90
2023/04/17 13:39:59;;;;;;;36.45;22.23;;;14.10;99.90;;;;;;4043589;29;20619;-91
2023/04/17 13:41:59;;;;;;;40.22;22.23;;;14.00;99.90;;;;;;4024884;29;20185;-94
2023/04/17 13:44:03;;;;;;;34.17;21.52;;;13.90;99.90;;;;;;4074830;29;20200;-95
2023/04/17 13:46:04;;;;;;;32.85;22.35;;;13.90;99.90;;;;;;4060609;29;20236;-90
2023/04/17 13:48:04;;;;;;;36.75;22.52;;;13.90;99.90;;;;;;4058420;29;20192;-91
2023/04/17 13:50:06;;;;;;;34.35;21.67;;;13.90;99.90;;;;;;4055741;29;20189;-96
2023/04/17 13:52:07;;;;;;;34.25;22.05;;;13.90;99.90;;;;;;4055401;29;20175;-91
2023/04/17 13:54:09;;;;;;;36.10;21.67;;;13.90;99.90;;;;;;4054946;29;20207;-92
2023/04/17 13:56:09;;;;;;;31.67;22.40;;;13.70;99.90;;;;;;4054936;29;20203;-92
2023/04/17 13:58:10;;;;;;;31.90;21.20;;;13.60;99.90;;;;;;4055001;29;20761;-90
2023/04/17 14:00:12;;;;;;;36.72;21.65;;;13.50;99.90;;;;;;4039358;29;20182;-94
2023/04/17 14:02:12;;;;;;;34.67;21.40;;;13.60;99.90;;;;;;4038154;29;20186;-91
2023/04/17 14:04:13;;;;;;;37.03;21.40;;;13.70;99.90;;;;;;4056466;29;20198;-94
2023/04/17 14:06:16;;;;;;;31.52;19.35;;;13.70;99.90;;;;;;4058860;29;20230;-95
2023/04/17 14:08:17;;;;;;;36.03;21.10;;;13.70;99.90;;;;;;4060769;29;20203;-94
2023/04/17 14:10:18;;;;;;;28.25;18.88;;;13.80;99.90;;;;;;4042626;29;20185;-92
2023/04/17 14:12:20;;;;;;;28.50;19.00;;;13.90;99.90;;;;;;4041951;29;20185;-90
2023/04/17 14:14:21;;;;;;;30.73;19.15;;;13.90;99.90;;;;;;4046182;29;20207;-93
2023/04/17 14:16:22;;;;;;;32.80;19.98;;;13.90;99.90;;;;;;4047134;29;20174;-92
2023/04/17 14:18:24;;;;;;;27.70;18.13;;;13.90;99.90;;;;;;4062798;29;20183;-93
2023/04/17 14:20:25;;;;;;;35.00;18.73;;;14.00;99.90;;;;;;4033608;29;20174;-96
2023/04/17 14:22:25;;;;;;;29.10;17.52;;;14.20;99.90;;;;;;4050047;29;20181;-92
2023/04/17 14:24:33;;;;;;;27.67;18.70;;;14.20;99.90;;;;;;4051649;29;20245;-94
2023/04/17 14:26:34;;;;;;;31.05;18.65;;;14.10;99.90;;;;;;4064972;29;20264;-95
2023/04/17 14:28:44;;;;;;;28.73;18.45;;;14.10;99.90;;;;;;4055358;29;20216;-92
2023/04/17 14:30:47;;;;;;;29.20;20.00;;;14.10;99.90;;;;;;4071093;29;20192;-93
2023/04/17 14:32:51;;;;;;;32.75;20.02;;;14.10;99.90;;;;;;4072349;29;20157;-94
2023/04/17 14:34:53;;;;;;;32.15;19.77;;;14.00;99.90;;;;;;4069765;29;20206;-93
2023/04/17 14:36:57;;;;;;;31.23;19.73;;;13.90;99.90;;;;;;4063022;29;20209;-93
2023/04/17 14:38:59;;;;;;;29.88;19.40;;;13.80;99.90;;;;;;4069154;29;20226;-95
2023/04/17 14:41:04;;;;;;;27.65;18.77;;;13.80;99.90;;;;;;4067176;29;20156;-95
2023/04/17 14:43:05;;;;;;;32.90;19.15;;;13.80;99.90;;;;;;4064878;29;20197;-94
2023/04/17 14:45:10;;;;;;;30.35;19.95;;;13.70;99.90;;;;;;4063525;29;20173;-92
2023/04/17 14:47:13;;;;;;;30.23;20.15;;;13.60;99.90;;;;;;4067769;29;20288;-93
2023/04/17 14:49:14;;;;;;;29.80;18.42;;;13.70;99.90;;;;;;4066905;29;20177;-95
2023/04/17 14:51:19;;;;;;;31.17;19.85;;;13.90;99.90;;;;;;4065876;29;20195;-94
2023/04/17 14:53:20;;;;;;;33.15;19.63;;;13.90;99.90;;;;;;4063900;29;20216;-92
2023/04/17 14:55:41;;;;;;;31.88;19.27;;;13.90;99.90;;;;;;4066402;29;20240;-92
2023/04/17 14:57:42;;;;;;;28.88;19.17;;;13.80;99.90;;;;;;4048944;29;20189;-92
2023/04/17 14:59:43;;;;;;;28.30;19.17;;;13.70;99.90;;;;;;4050347;29;20173;-94
2023/04/17 15:01:47;;;;;;;32.88;19.52;;;13.70;99.90;;;;;;4082499;28;20176;-92
2023/04/17 15:03:56;;;;;;;28.02;18.73;;;13.80;99.90;;;;;;4068849;29;20203;-93
2023/04/17 15:06:01;;;;;;;31.70;18.30;;;13.90;99.90;;;;;;4067102;29;20189;-96
2023/04/17 15:08:02;;;;;;;28.90;18.98;;;14.10;99.90;;;;;;4051465;29;20188;-92
2023/04/17 15:10:04;;;;;;;26.77;18.10;;;14.40;99.90;;;;;;4041765;29;20177;-92
2023/04/17 15:12:05;;;;;;;27.50;18.40;;;14.60;99.90;;;;;;4067636;29;20208;-93
2023/04/17 15:14:06;;;;;;;28.95;17.33;;;14.60;99.90;;;;;;4049858;29;20237;-95
2023/04/17 15:16:08;;;;;;;30.45;17.25;;;14.60;99.90;;;;;;4064573;29;20181;-94
2023/04/17 15:18:10;;;;;;;25.63;17.23;;;14.70;99.90;;;;;;4069588;29;20211;-92
2023/04/17 15:20:13;;;;;;;29.15;18.15;;;14.60;99.90;;;;;;4054610;29;20174;-92
2023/04/17 15:22:18;;;;;;;30.77;18.88;;;14.50;99.90;;;;;;4055993;29;20200;-94
2023/04/17 15:24:26;;;;;;;29.35;17.88;;;14.40;99.90;;;;;;4069252;29;20193;-95
2023/04/17 15:26:32;;;;;;;31.15;16.80;;;14.40;99.90;;;;;;4068124;29;20253;-93
2023/04/17 15:29:19;;;;;;;27.58;16.95;;;14.60;99.90;;;;;;4067933;29;20189;-92
2023/04/17 15:31:24;;;;;;;25.52;16.95;;;14.60;99.90;;;;;;4070563;29;20216;-93
2023/04/17 15:34:12;;;;;;;28.90;17.50;;;14.60;99.90;;;;;;4071010;29;20204;-93
2023/04/17 15:36:13;;;;;;;27.42;17.90;;;14.60;99.90;;;;;;4097884;29;20175;-95
2023/04/17 15:38:19;;;;;;;24.95;15.80;;;14.60;99.90;;;;;;4082435;29;20581;-94
2023/04/17 15:40:35;;;;;;;28.25;17.77;;;14.70;99.90;;;;;;4067051;29;20177;-93
2023/04/17 15:42:36;;;;;;;27.67;17.50;;;14.80;99.90;;;;;;4065413;29;20197;-90
2023/04/17 15:44:38;;;;;;;31.10;18.38;;;15.10;99.90;;;;;;4066024;29;20216;-92
2023/04/17 15:46:42;;;;;;;27.73;17.30;;;15.10;99.90;;;;;;4065624;29;20196;-94
2023/04/17 15:48:50;;;;;;;30.30;18.30;;;15.20;99.90;;;;;;4046474;29;20182;-93
2023/04/17 15:51:12;;;;;;;28.17;17.52;;;15.30;99.90;;;;;;4064877;29;20222;-93
2023/04/17 15:53:21;;;;;;;26.10;17.02;;;15.20;99.90;;;;;;4082756;29;20212;-95
2023/04/17 15:55:22;;;;;;;25.67;17.38;;;15.10;99.90;;;;;;4069337;29;20342;-91
2023/04/17 15:57:29;;;;;;;32.33;18.17;;;15.10;99.90;;;;;;4066753;29;20193;-92
2023/04/17 15:59:37;;;;;;;29.00;17.50;;;14.90;99.90;;;;;;4066589;29;20264;-93
2023/04/17 16:01:40;;;;;;;29.35;18.55;;;14.90;99.90;;;;;;4081453;29;20690;-95
2023/04/17 16:03:42;;;;;;;27.42;16.98;;;14.80;99.90;;;;;;4066830;29;20260;-91
2023/04/17 16:05:48;;;;;;;28.80;16.92;;;14.90;99.90;;;;;;4065120;29;20180;-93
2023/04/17 16:08:00;;;;;;;28.20;16.55;;;14.90;99.90;;;;;;4081940;29;20184;-92
2023/04/17 16:10:12;;;;;;;25.50;16.80;;;14.90;99.90;;;;;;4066873;29;20169;-93
2023/04/17 16:12:16;;;;;;;26.80;17.23;;;15.10;99.90;;;;;;4085427;29;20179;-94
2023/04/17 16:14:25;;;;;;;29.52;17.77;;;15.20;99.90;;;;;;4051328;29;20244;-92
2023/04/17 16:16:35;;;;;;;31.23;18.15;;;15.30;99.90;;;;;;4077651;29;20164;-92
2023/04/17 16:18:39;;;;;;;28.02;16.42;;;15.40;99.90;;;;;;4065630;29;20232;-93
2023/04/17 16:20:43;;;;;;;31.35;17.05;;;15.50;99.90;;;;;;4050295;29;20188;-95
2023/04/17 16:22:51;;;;;;;28.00;16.73;;;15.40;99.90;;;;;;4063706;29;20173;-93
2023/04/17 16:24:52;;;;;;;25.73;17.75;;;15.40;99.90;;;;;;4055962;29;20197;-93
2023/04/17 16:26:58;;;;;;;26.85;17.20;;;15.00;99.90;;;;;;4053712;29;20688;-94
2023/04/17 16:28:58;;;;;;;27.20;17.33;;;14.80;99.90;;;;;;4053939;29;20181;-93
2023/04/17 16:30:59;;;;;;;28.60;17.75;;;14.70;99.90;;;;;;4053822;29;20708;-93
2023/04/17 16:33:00;;;;;;;24.40;17.60;;;14.70;99.90;;;;;;4053566;29;20225;-93
2023/04/17 16:35:01;;;;;;;27.85;17.42;;;14.60;99.90;;;;;;4054037;29;20191;-94
2023/04/17 16:37:02;;;;;;;29.27;18.95;;;14.70;99.90;;;;;;4053906;29;20177;-93
2023/04/17 16:39:03;;;;;;;27.92;17.70;;;14.70;99.90;;;;;;4054845;29;20272;-94
2023/04/17 16:41:04;;;;;;;32.38;17.95;;;14.60;99.90;;;;;;4038978;29;20185;-93
2023/04/17 16:43:05;;;;;;;31.35;18.02;;;14.70;99.90;;;;;;4053910;29;20268;-93
2023/04/17 16:45:06;;;;;;;30.77;17.83;;;14.70;99.90;;;;;;4038103;29;20170;-94
2023/04/17 16:47:06;;;;;;;27.17;16.65;;;14.80;99.90;;;;;;4059395;29;20221;-94
2023/04/17 16:49:08;;;;;;;28.73;17.65;;;14.90;99.90;;;;;;4052002;29;20199;-93
2023/04/17 16:51:09;;;;;;;28.10;17.80;;;15.00;99.90;;;;;;4073716;29;20177;-92
2023/04/17 16:53:10;;;;;;;28.10;16.83;;;15.10;99.90;;;;;;4064552;29;20248;-93
2023/04/17 16:55:11;;;;;;;28.00;17.17;;;15.00;99.90;;;;;;4053452;29;20217;-93
2023/04/17 16:57:12;;;;;;;31.73;18.00;;;15.00;99.90;;;;;;4053287;29;20181;-92
2023/04/17 16:59:12;;;;;;;31.42;16.92;;;15.00;99.90;;;;;;4052975;29;20279;-95
2023/04/17 17:01:13;;;;;;;29.80;19.38;;;14.90;99.90;;;;;;4037434;29;20279;-95
2023/04/17 17:03:14;;;;;;;26.65;16.88;;;14.90;99.90;;;;;;4054183;29;20204;-94
2023/04/17 17:05:15;;;;;;;29.58;17.80;;;14.80;99.90;;;;;;4053948;29;20192;-95
2023/04/17 17:07:15;;;;;;;33.88;18.65;;;14.60;99.90;;;;;;4038027;29;20232;-93
2023/04/17 17:09:16;;;;;;;30.98;18.73;;;14.60;99.90;;;;;;4053702;29;20772;-93
2023/04/17 17:11:18;;;;;;;31.48;19.27;;;14.60;99.90;;;;;;4038999;29;20276;-91
2023/04/17 17:13:19;;;;;;;34.75;19.17;;;14.60;99.90;;;;;;4053257;29;20280;-93
2023/04/17 17:15:19;;;;;;;36.67;20.50;;;14.60;99.90;;;;;;4053858;29;20188;-95
2023/04/17 17:17:20;;;;;;;32.10;19.02;;;14.70;99.90;;;;;;4053269;29;20658;-95
2023/04/17 17:19:21;;;;;;;29.23;18.90;;;14.80;99.90;;;;;;4052973;29;20606;-95
2023/04/17 17:21:22;;;;;;;30.02;19.70;;;14.80;99.90;;;;;;4037658;29;20177;-94
2023/04/17 17:23:22;;;;;;;30.92;19.23;;;14.80;99.90;;;;;;4053042;29;20279;-93
2023/04/17 17:25:23;;;;;;;34.25;19.83;;;14.70;99.90;;;;;;4053121;29;20333;-93
2023/04/17 17:27:24;;;;;;;32.30;18.90;;;14.80;99.90;;;;;;4053228;29;20288;-94
2023/04/17 17:29:25;;;;;;;32.67;19.73;;;14.80;99.90;;;;;;4052827;29;20178;-94
2023/04/17 17:31:25;;;;;;;36.65;18.95;;;15.00;99.90;;;;;;4053044;29;20176;-94
2023/04/17 17:33:26;;;;;;;27.45;17.15;;;15.00;99.90;;;;;;4052698;29;20209;-94
2023/04/17 17:35:27;;;;;;;28.58;19.42;;;15.00;99.90;;;;;;4052773;29;20187;-93
2023/04/17 17:37:28;;;;;;;29.52;17.90;;;15.10;99.90;;;;;;4037144;29;20173;-93
2023/04/17 17:39:29;;;;;;;31.52;18.75;;;14.90;99.90;;;;;;4052609;29;20185;-94
2023/04/17 17:41:29;;;;;;;26.05;17.60;;;15.00;99.90;;;;;;4037696;29;20262;-91
2023/04/17 17:43:30;;;;;;;35.35;18.38;;;15.20;99.90;;;;;;4052955;29;20208;-94
2023/04/17 17:45:31;;;;;;;30.45;17.90;;;15.40;99.90;;;;;;4053037;29;20585;-96
2023/04/17 17:47:32;;;;;;;28.60;17.58;;;15.50;99.90;;;;;;4052685;29;20683;-96
2023/04/17 17:49:32;;;;;;;25.80;16.88;;;15.50;99.90;;;;;;4037422;29;20169;-94
2023/04/17 17:51:33;;;;;;;37.78;18.33;;;15.60;99.90;;;;;;4037432;29;20231;-94
2023/04/17 17:53:34;;;;;;;30.90;17.70;;;15.50;99.90;;;;;;4052824;29;20202;-95
2023/04/17 17:55:37;;;;;;;31.08;18.83;;;15.50;99.90;;;;;;4038122;29;20177;-93
2023/04/17 17:57:38;;;;;;;31.02;16.52;;;15.50;99.90;;;;;;4053737;29;20184;-93
2023/04/17 17:59:39;;;;;;;27.77;15.93;;;15.30;99.90;;;;;;4053915;29;20264;-94
2023/04/17 18:01:40;;;;;;;30.05;17.50;;;15.10;99.90;;;;;;4053490;29;20637;-96
2023/04/17 18:03:42;;;;;;;24.25;15.77;;;15.00;99.90;;;;;;4053724;29;20247;-94
2023/04/17 18:05:43;;;;;;;29.25;16.88;;;15.00;99.90;;;;;;4053678;29;20180;-95
2023/04/17 18:07:44;;;;;;;27.85;17.35;;;15.00;99.90;;;;;;4053363;29;20236;-92
2023/04/17 18:09:45;;;;;;;29.27;17.70;;;14.70;99.90;;;;;;4053798;29;20177;-93
2023/04/17 18:11:46;;;;;;;29.77;17.38;;;14.50;99.90;;;;;;4053124;29;20207;-92
2023/04/17 18:13:46;;;;;;;32.08;17.23;;;14.50;99.90;;;;;;4053510;29;20276;-95
2023/04/17 18:15:47;;;;;;;27.77;17.67;;;14.30;99.90;;;;;;4054005;29;20209;-95
2023/04/17 18:17:48;;;;;;;31.08;17.30;;;14.70;99.90;;;;;;4054190;29;20165;-93
2023/04/17 18:19:49;;;;;;;28.02;16.50;;;14.90;99.90;;;;;;4058290;29;20180;-95
2023/04/17 18:21:50;;;;;;;26.58;16.48;;;14.90;99.90;;;;;;4061944;29;20177;-95
2023/04/17 18:23:50;;;;;;;25.75;15.07;;;14.80;99.90;;;;;;4058602;29;20239;-94
2023/04/17 18:25:59;;;;;;;29.35;17.00;;;14.80;99.90;;;;;;4059796;29;20184;-92
2023/04/17 18:28:02;;;;;;;25.58;15.95;;;14.80;99.90;;;;;;4062482;29;20191;-92
2023/04/17 18:30:07;;;;;;;22.33;15.48;;;14.60;99.90;;;;;;4063816;29;20179;-93
2023/04/17 18:32:09;;;;;;;26.83;16.15;;;14.30;99.90;;;;;;4065587;29;20203;-93
2023/04/17 18:34:16;;;;;;;25.55;16.38;;;14.20;99.90;;;;;;4046810;29;20204;-95
2023/04/17 18:36:21;;;;;;;31.00;17.10;;;14.30;99.90;;;;;;4065432;29;20185;-95
2023/04/17 18:38:21;;;;;;;25.83;17.27;;;14.20;99.90;;;;;;4051020;29;20161;-91
2023/04/17 18:40:25;;;;;;;31.17;17.50;;;14.20;99.90;;;;;;4064336;29;20181;-95
2023/04/17 18:42:26;;;;;;;27.45;16.05;;;13.80;99.90;;;;;;4063680;29;20176;-92
2023/04/17 18:44:47;;;;;;;25.48;15.10;;;13.30;99.90;;;;;;4064852;29;20208;-95
2023/04/17 18:46:48;;;;;;;24.65;15.07;;;13.40;99.90;;;;;;4046882;29;20220;-93
2023/04/17 18:48:49;;;;;;;25.17;15.10;;;13.40;99.90;;;;;;4061666;29;20181;-90
2023/04/17 18:50:50;;;;;;;22.38;14.68;;;13.20;99.90;;;;;;4052074;29;20200;-91
2023/04/17 18:53:07;;;;;;;26.25;14.50;;;13.10;99.90;;;;;;4050497;29;20221;-92
2023/04/17 18:55:10;;;;;;;23.88;15.23;;;12.90;99.90;;;;;;4050425;29;20192;-93
2023/04/17 18:57:13;;;;;;;26.45;16.52;;;12.80;99.90;;;;;;4063697;29;20216;-91
2023/04/17 18:59:29;;;;;;;22.33;14.32;;;12.70;99.90;;;;;;4066796;29;20751;-91
2023/04/17 19:01:45;;;;;;;24.00;14.43;;;12.50;99.90;;;;;;4063387;29;20192;-92
2023/04/17 19:03:50;;;;;;;26.15;14.55;;;12.40;99.90;;;;;;4058799;29;20249;-93
2023/04/17 19:05:58;;;;;;;21.02;13.75;;;12.40;99.90;;;;;;4062975;29;20177;-94
2023/04/17 19:07:59;;;;;;;22.75;13.85;;;12.40;99.90;;;;;;4079202;29;20195;-94
2023/04/17 19:10:00;;;;;;;23.10;15.25;;;12.40;99.90;;;;;;4060648;29;20203;-93
2023/04/17 19:12:04;;;;;;;22.77;13.50;;;12.30;99.90;;;;;;4063242;29;20199;-96
2023/04/17 19:14:07;;;;;;;23.92;14.85;;;12.10;99.90;;;;;;4061901;29;20205;-93
2023/04/17 19:16:16;;;;;;;49.05;27.88;;;11.80;99.90;;;;;;4066120;29;20168;-93
2023/04/17 19:18:44;;;;;;;54.88;34.85;;;11.60;99.90;;;;;;4061141;29;20205;-92
2023/04/17 19:20:47;;;;;;;131.82;78.90;;;11.50;99.90;;;;;;4059636;29;20197;-93
2023/04/17 19:22:53;;;;;;;134.75;81.50;;;11.50;99.90;;;;;;4061092;29;20165;-92
2023/04/17 19:24:54;;;;;;;99.40;59.22;;;11.70;99.90;;;;;;4064034;29;20200;-92
2023/04/17 19:27:03;;;;;;;47.20;29.35;;;11.80;99.90;;;;;;4064646;29;20196;-92
2023/04/17 19:29:37;;;;;;;58.42;35.35;;;11.90;99.90;;;;;;4067364;29;20173;-92
2023/04/17 19:31:40;;;;;;;87.53;49.30;;;12.00;99.90;;;;;;4063981;29;20197;-92
2023/04/17 19:33:41;;;;;;;58.30;34.78;;;11.90;99.90;;;;;;4050267;29;20209;-91
2023/04/17 19:35:45;;;;;;;41.05;23.10;;;11.90;99.90;;;;;;4049138;29;20169;-93
2023/04/17 19:37:54;;;;;;;29.33;20.00;;;12.10;99.90;;;;;;4065072;29;20192;-92
2023/04/17 19:40:14;;;;;;;31.80;19.70;;;12.00;99.90;;;;;;4065085;29;20177;-92
2023/04/17 19:42:38;;;;;;;39.22;20.73;;;12.00;99.90;;;;;;4081763;29;20176;-93
2023/04/17 19:44:41;;;;;;;34.30;20.27;;;11.90;99.90;;;;;;4068957;29;20184;-92
2023/04/17 19:46:58;;;;;;;35.30;20.10;;;12.20;99.90;;;;;;4082004;29;20204;-91